Time;durP1;ratioP1;P1;durP2;ratioP2;P2;SDS_P1;SDS_P2;PMS_P1;PMS_P2;Temp;Humidity;BMP_temperature;BMP_pressure;BME280_temperature;BME280_humidity;BME280_pressure;Samples;Min_cycle;Max_cycle;Signal;HPM_P1;HPM_P2
2020/12/15 00:00:43;;;;;;;37.20;6.45;;;;;;;10.55;66.45;97966.16;5110158;27;20081;-76
2020/12/15 00:03:08;;;;;;;28.60;7.07;;;;;;;10.71;66.21;97971.72;5104988;27;20058;-76
2020/12/15 00:05:34;;;;;;;27.38;6.75;;;;;;;10.78;65.73;97971.47;5126196;27;20119;-76
2020/12/15 00:08:02;;;;;;;33.10;7.32;;;;;;;10.36;66.81;97970.34;5127072;27;20027;-78
2020/12/15 00:10:28;;;;;;;39.58;7.18;;;;;;;10.23;67.60;97974.25;5107100;27;20138;-76
2020/12/15 00:12:54;;;;;;;34.47;6.60;;;;;;;10.21;67.90;97981.31;5126994;27;20486;-77
2020/12/15 00:15:30;;;;;;;34.72;7.40;;;;;;;10.28;67.76;97973.19;5124459;27;20038;-76
2020/12/15 00:17:56;;;;;;;32.85;6.60;;;;;;;10.14;68.27;97975.38;5111354;27;20058;-76
2020/12/15 00:20:22;;;;;;;42.72;6.65;;;;;;;10.36;67.85;97980.78;5107616;27;20526;-77
2020/12/15 00:22:48;;;;;;;31.42;7.60;;;;;;;10.17;68.53;97977.09;5107989;28;20056;-76
2020/12/15 00:25:14;;;;;;;28.60;7.45;;;;;;;10.35;67.79;97987.78;5104384;28;20065;-76
2020/12/15 00:27:41;;;;;;;31.55;7.20;;;;;;;10.43;66.93;97979.66;5107975;28;20036;-77
2020/12/15 00:30:07;;;;;;;32.55;7.88;;;;;;;10.19;68.00;97988.31;5104780;28;20102;-76
2020/12/15 00:32:33;;;;;;;35.50;7.65;;;;;;;10.28;68.10;97978.44;5127975;27;20138;-77
2020/12/15 00:34:59;;;;;;;31.55;8.27;;;;;;;10.28;68.28;97973.19;5122072;27;20122;-77
2020/12/15 00:37:24;;;;;;;34.35;7.35;;;;;;;10.79;66.71;97967.09;5110673;27;20118;-76
2020/12/15 00:39:50;;;;;;;43.53;8.48;;;;;;;10.56;66.79;97965.28;5102499;27;20054;-77
2020/12/15 00:42:19;;;;;;;40.05;8.27;;;;;;;10.47;67.16;97969.06;5104558;28;20492;-76
2020/12/15 00:44:45;;;;;;;34.72;7.72;;;;;;;10.43;66.90;97964.84;5105139;27;20043;-77
2020/12/15 00:47:14;;;;;;;28.65;7.32;;;;;;;10.65;66.12;97966.72;5127168;27;20117;-77
2020/12/15 00:49:41;;;;;;;33.80;7.25;;;;;;;10.55;66.56;97962.75;5107578;27;20081;-78
2020/12/15 00:52:07;;;;;;;38.50;8.35;;;;;;;9.91;68.59;97970.94;5106408;27;20039;-77
2020/12/15 00:54:33;;;;;;;30.58;7.25;;;;;;;10.18;68.19;97968.34;5107966;28;20047;-77
2020/12/15 00:56:59;;;;;;;27.20;8.32;;;;;;;10.18;68.19;97974.41;5107265;28;20332;-76
2020/12/15 00:59:25;;;;;;;34.03;7.50;;;;;;;10.20;68.08;97979.59;5124345;28;20068;-76
2020/12/15 01:01:51;;;;;;;35.42;9.18;;;;;;;9.84;69.26;97977.22;5118993;27;20411;-76
2020/12/15 01:04:17;;;;;;;25.58;8.57;;;;;;;10.45;67.36;97975.25;5127619;28;20054;-76
2020/12/15 01:06:48;;;;;;;32.35;7.82;;;;;;;10.41;67.15;97979.72;5086370;28;20092;-79
2020/12/15 01:09:14;;;;;;;40.03;9.45;;;;;;;10.42;67.75;97972.72;5106214;28;20110;-77
2020/12/15 01:11:40;;;;;;;34.83;8.77;;;;;;;10.52;66.74;97975.88;5104199;28;20164;-76
2020/12/15 01:14:06;;;;;;;29.92;8.80;;;;;;;10.52;66.58;97979.34;5106609;28;20035;-77
2020/12/15 01:16:31;;;;;;;37.70;9.32;;;;;;;10.54;66.71;97971.47;5105567;28;20042;-76
2020/12/15 01:18:57;;;;;;;35.58;10.27;;;;;;;10.46;66.62;97982.16;5126385;28;20400;-77
2020/12/15 01:21:30;;;;;;;38.75;7.85;;;;;;;10.20;67.22;97984.81;5126497;27;20075;-76
2020/12/15 01:23:57;;;;;;;29.52;8.40;;;;;;;9.78;69.23;97985.28;5127406;27;20069;-78
2020/12/15 01:26:24;;;;;;;39.40;9.38;;;;;;;10.42;67.36;97976.19;5124841;27;22845;-76
2020/12/15 01:28:50;;;;;;;36.17;8.88;;;;;;;9.93;67.79;97981.28;5121520;27;20058;-76
2020/12/15 01:31:23;;;;;;;35.67;7.90;;;;;;;10.03;68.03;97980.94;5121164;28;20039;-78
2020/12/15 01:33:50;;;;;;;63.67;9.95;;;;;;;10.20;67.99;97977.84;5126035;28;20035;-78
2020/12/15 01:36:16;;;;;;;34.25;8.77;;;;;;;10.23;68.01;97977.72;5122133;27;20130;-77
2020/12/15 01:38:42;;;;;;;35.60;8.50;;;;;;;10.42;67.50;97976.19;5120890;27;20654;-78
2020/12/15 01:41:08;;;;;;;36.45;8.98;;;;;;;10.28;67.28;97982.78;5125318;28;20042;-78
2020/12/15 01:43:34;;;;;;;29.85;8.90;;;;;;;10.45;66.93;97983.09;5118400;27;20465;-77
2020/12/15 01:46:00;;;;;;;34.97;10.20;;;;;;;9.77;69.13;97982.69;5120332;28;20059;-78
2020/12/15 01:48:26;;;;;;;37.38;9.75;;;;;;;10.08;68.62;97986.03;5121162;27;20078;-76
2020/12/15 01:50:52;;;;;;;35.15;10.23;;;;;;;10.03;68.44;97998.38;5130392;27;20031;-76
2020/12/15 01:53:17;;;;;;;30.98;9.88;;;;;;;10.14;68.14;97995.41;5109372;27;20051;-78
2020/12/15 01:55:44;;;;;;;32.00;9.73;;;;;;;9.84;69.13;97990.28;5125281;27;20047;-76
2020/12/15 01:58:10;;;;;;;40.55;10.32;;;;;;;10.11;68.99;98001.59;5127476;27;20034;-77
2020/12/15 02:00:36;;;;;;;32.03;9.48;;;;;;;9.89;69.08;97996.19;5134400;27;20038;-77
2020/12/15 02:03:02;;;;;;;39.97;10.55;;;;;;;9.76;69.97;98004.47;5129180;27;20042;-78
2020/12/15 02:05:29;;;;;;;29.42;9.52;;;;;;;10.28;67.95;98001.91;5125854;27;20056;-77
2020/12/15 02:07:55;;;;;;;38.78;10.27;;;;;;;10.12;67.32;97999.84;5124648;27;20090;-77
2020/12/15 02:10:22;;;;;;;29.33;9.20;;;;;;;9.86;68.86;97991.09;5127706;27;20076;-77
2020/12/15 02:12:49;;;;;;;47.75;12.50;;;;;;;9.84;69.07;97990.28;5112759;27;20413;-77
2020/12/15 02:15:15;;;;;;;38.40;10.95;;;;;;;9.86;68.33;97995.44;5108182;27;20055;-78
2020/12/15 02:17:41;;;;;;;27.23;9.07;;;;;;;9.84;68.02;97992.88;5114115;27;20104;-77
2020/12/15 02:20:08;;;;;;;28.65;8.25;;;;;;;9.80;68.30;97996.50;5124910;27;20039;-78
2020/12/15 02:22:34;;;;;;;43.83;9.00;;;;;;;10.30;66.83;97999.25;5112595;27;20032;-76
2020/12/15 02:25:01;;;;;;;30.70;8.82;;;;;;;10.13;66.77;98001.53;5103738;27;20134;-76
2020/12/15 02:27:27;;;;;;;27.77;7.55;;;;;;;10.32;66.19;97995.69;5129767;27;20066;-77
2020/12/15 02:29:52;;;;;;;23.17;7.53;;;;;;;10.03;66.85;98003.56;5123195;27;20137;-78
2020/12/15 02:32:18;;;;;;;34.10;7.82;;;;;;;9.76;67.34;98005.31;5125968;27;20024;-77
2020/12/15 02:34:47;;;;;;;29.58;7.38;;;;;;;10.01;66.25;98011.47;5127399;27;20039;-77
2020/12/15 02:37:14;;;;;;;23.13;7.15;;;;;;;9.74;66.52;98014.94;5126025;27;20031;-77
2020/12/15 02:39:40;;;;;;;35.90;6.95;;;;;;;9.82;66.47;98014.72;5129570;27;20023;-78
2020/12/15 02:42:05;;;;;;;31.10;6.75;;;;;;;9.72;66.41;98016.75;5111375;27;20023;-77
2020/12/15 02:44:31;;;;;;;28.92;6.47;;;;;;;10.17;65.53;98026.69;5112998;27;20542;-77
2020/12/15 02:46:56;;;;;;;42.47;5.88;;;;;;;9.85;66.05;98025.03;5124775;27;20419;-76
2020/12/15 02:49:22;;;;;;;25.48;6.03;;;;;;;9.78;66.16;98032.22;5123550;27;20054;-77
2020/12/15 02:51:49;;;;;;;23.98;6.10;;;;;;;9.34;67.39;98020.50;5111427;27;20118;-77
2020/12/15 02:54:16;;;;;;;25.90;5.88;;;;;;;9.97;65.46;98035.09;5128801;27;20073;-79
2020/12/15 02:56:42;;;;;;;23.85;5.03;;;;;;;9.57;66.12;98038.94;5127025;27;20027;-77
2020/12/15 02:59:09;;;;;;;26.13;5.47;;;;;;;10.06;65.45;98040.88;5124330;27;20118;-77
2020/12/15 03:01:40;;;;;;;27.65;5.13;;;;;;;9.70;66.35;98047.22;5127993;27;20061;-76
2020/12/15 03:04:06;;;;;;;29.67;6.03;;;;;;;9.30;67.01;98044.09;5123482;27;20433;-76
2020/12/15 03:06:31;;;;;;;23.88;5.22;;;;;;;9.81;65.33;98047.75;5125129;27;20700;-76
2020/12/15 03:08:57;;;;;;;22.83;5.65;;;;;;;9.78;65.14;98049.63;5125893;27;20173;-76
2020/12/15 03:11:23;;;;;;;25.92;4.57;;;;;;;9.99;64.60;98051.53;5123791;27;20027;-76
2020/12/15 03:13:49;;;;;;;23.98;4.97;;;;;;;9.89;64.50;98048.38;5129676;27;20058;-77
2020/12/15 03:16:15;;;;;;;26.65;4.85;;;;;;;9.98;63.91;98050.69;5124797;27;20047;-77
2020/12/15 03:18:40;;;;;;;18.38;4.07;;;;;;;9.68;65.55;98054.25;5112779;27;20023;-77
2020/12/15 03:21:08;;;;;;;24.63;4.80;;;;;;;9.60;65.58;98057.06;5105381;27;20043;-76
2020/12/15 03:23:37;;;;;;;21.38;3.97;;;;;;;9.96;64.23;98057.72;5106057;27;20054;-77
2020/12/15 03:26:02;;;;;;;24.33;3.97;;;;;;;9.47;65.75;98060.09;5121096;27;20420;-79
2020/12/15 03:28:31;;;;;;;20.63;4.45;;;;;;;9.24;66.81;98060.75;5123519;27;20035;-77
2020/12/15 03:30:57;;;;;;;23.90;4.07;;;;;;;9.94;64.87;98061.25;5108093;27;20029;-78
2020/12/15 03:33:23;;;;;;;22.92;4.43;;;;;;;9.50;66.07;98045.19;5108892;27;20477;-77
2020/12/15 03:35:48;;;;;;;23.42;3.85;;;;;;;9.85;65.17;98051.97;5126889;27;20083;-77
2020/12/15 03:38:14;;;;;;;22.67;4.72;;;;;;;9.68;65.85;98046.44;5127234;27;20473;-77
2020/12/15 03:40:41;;;;;;;18.95;4.97;;;;;;;9.76;65.59;98056.63;5120652;27;20038;-78
2020/12/15 03:43:08;;;;;;;19.65;4.10;;;;;;;9.45;66.96;98049.69;5107446;27;20130;-78
2020/12/15 03:45:35;;;;;;;21.80;4.47;;;;;;;9.56;66.45;98055.47;5128395;27;20027;-78
2020/12/15 03:48:01;;;;;;;24.20;4.13;;;;;;;9.80;65.58;98053.00;5124768;27;20042;-77
2020/12/15 03:50:27;;;;;;;26.80;4.80;;;;;;;9.26;67.81;98052.88;5109735;27;20193;-77
2020/12/15 03:52:52;;;;;;;20.80;3.95;;;;;;;9.50;67.40;98055.63;5120538;27;20054;-77
2020/12/15 03:55:24;;;;;;;27.92;4.63;;;;;;;9.57;66.65;98062.38;5130176;27;20427;-77
2020/12/15 03:57:50;;;;;;;31.08;4.32;;;;;;;9.72;66.04;98061.06;5125767;27;20050;-77
2020/12/15 04:00:18;;;;;;;25.15;4.28;;;;;;;9.97;65.30;98062.03;5104738;27;20135;-77
2020/12/15 04:02:45;;;;;;;36.83;5.95;;;;;;;9.77;66.49;98069.63;5126379;27;20034;-78
2020/12/15 04:05:11;;;;;;;20.08;5.18;;;;;;;9.75;66.58;98076.63;5123770;27;20138;-78
2020/12/15 04:07:36;;;;;;;21.38;5.00;;;;;;;9.74;66.52;98072.28;5126461;27;20046;-77
2020/12/15 04:10:05;;;;;;;36.17;7.50;;;;;;;9.86;66.13;98084.13;5129222;27;20559;-77
2020/12/15 04:12:31;;;;;;;31.55;5.95;;;;;;;9.59;67.27;98072.78;5117045;27;20054;-76
2020/12/15 04:14:56;;;;;;;26.35;5.85;;;;;;;9.95;65.97;98078.63;5107100;27;20027;-79
2020/12/15 04:17:22;;;;;;;26.65;4.95;;;;;;;9.23;67.55;98081.63;5126534;27;20095;-77
2020/12/15 04:19:48;;;;;;;38.35;6.03;;;;;;;9.74;66.72;98089.69;5106967;27;20030;-77
2020/12/15 04:22:13;;;;;;;29.52;6.00;;;;;;;9.92;65.99;98092.63;5126335;27;20458;-76
2020/12/15 04:24:39;;;;;;;22.23;5.53;;;;;;;9.62;66.76;98086.56;5104739;27;20078;-76
2020/12/15 04:27:04;;;;;;;32.80;6.35;;;;;;;9.43;67.63;98094.97;5121364;27;20450;-77
2020/12/15 04:29:30;;;;;;;32.53;6.60;;;;;;;9.85;66.31;98101.53;5116531;27;20603;-78
2020/12/15 04:31:56;;;;;;;23.00;5.32;;;;;;;10.16;65.12;98101.50;5123314;27;20213;-78
2020/12/15 04:34:22;;;;;;;29.58;6.40;;;;;;;9.90;66.32;98099.63;5104648;28;20489;-77
2020/12/15 04:36:48;;;;;;;26.25;5.93;;;;;;;9.99;66.33;98109.78;5126295;27;20386;-77
2020/12/15 04:39:14;;;;;;;35.13;7.25;;;;;;;9.79;67.26;98106.06;5124755;27;20245;-76
2020/12/15 04:41:39;;;;;;;24.88;5.40;;;;;;;9.69;67.78;98102.03;5118092;27;20789;-77
2020/12/15 04:44:05;;;;;;;28.15;5.60;;;;;;;10.13;65.59;98111.13;5127517;27;20023;-77
2020/12/15 04:46:37;;;;;;;29.25;7.03;;;;;;;9.87;66.11;98117.13;5131121;27;20123;-77
2020/12/15 04:49:06;;;;;;;24.10;6.72;;;;;;;10.13;65.67;98116.34;5125415;27;20027;-76
2020/12/15 04:51:50;;;;;;;28.40;6.20;;;;;;;9.84;66.11;98118.06;5124511;27;20036;-77
2020/12/15 04:54:16;;;;;;;22.20;6.13;;;;;;;9.99;66.38;98114.16;5123050;27;20128;-77
2020/12/15 04:56:44;;;;;;;20.77;6.72;;;;;;;9.13;69.22;98112.28;5119632;28;20047;-76
2020/12/15 04:59:13;;;;;;;31.23;6.90;;;;;;;9.63;68.13;98118.72;5126834;28;20034;-78
2020/12/15 05:01:44;;;;;;;24.92;7.03;;;;;;;9.32;68.55;98126.53;5103060;28;20035;-77
2020/12/15 05:04:12;;;;;;;38.80;7.30;;;;;;;9.41;69.30;98115.84;5106568;28;20032;-76
2020/12/15 05:06:38;;;;;;;24.95;7.05;;;;;;;9.56;68.55;98107.59;5099194;28;20027;-77
2020/12/15 05:09:04;;;;;;;19.60;6.70;;;;;;;9.91;67.04;98117.00;5108041;28;20049;-77
2020/12/15 05:11:29;;;;;;;29.20;7.20;;;;;;;10.12;66.47;98114.66;5108300;28;20038;-77
2020/12/15 05:13:55;;;;;;;23.42;6.45;;;;;;;9.73;67.81;98107.13;5127778;28;20053;-76
2020/12/15 05:16:21;;;;;;;26.48;7.60;;;;;;;10.05;66.87;98109.63;5105098;28;20492;-77
2020/12/15 05:18:47;;;;;;;28.25;7.40;;;;;;;9.89;67.13;98102.28;5103118;28;20438;-76
2020/12/15 05:21:17;;;;;;;27.38;6.40;;;;;;;10.16;66.36;98108.47;5123098;27;20112;-79
2020/12/15 05:23:54;;;;;;;28.55;7.10;;;;;;;9.70;67.97;98117.63;5121272;27;20395;-76
2020/12/15 05:26:24;;;;;;;27.77;7.35;;;;;;;9.63;68.00;98116.09;5107638;27;20023;-77
2020/12/15 05:29:06;;;;;;;31.95;6.32;;;;;;;9.60;68.87;98121.38;5129529;27;20027;-77
2020/12/15 05:31:32;;;;;;;21.15;7.22;;;;;;;9.70;68.49;98124.59;5106174;28;20044;-77
2020/12/15 05:33:59;;;;;;;22.77;7.15;;;;;;;9.75;67.89;98120.94;5129385;27;20034;-78
2020/12/15 05:36:25;;;;;;;25.77;6.20;;;;;;;9.48;68.39;98113.94;5107348;27;20115;-79
2020/12/15 05:39:06;;;;;;;23.40;5.72;;;;;;;9.67;68.38;98119.47;5110092;27;20027;-76
2020/12/15 05:42:04;;;;;;;27.00;6.38;;;;;;;9.89;67.67;98115.31;5128815;27;20038;-77
2020/12/15 05:44:31;;;;;;;24.50;6.53;;;;;;;9.76;67.50;98127.03;5128048;27;20427;-78
2020/12/15 05:47:21;;;;;;;29.00;5.80;;;;;;;9.94;66.98;98121.25;5125853;27;20529;-76
2020/12/15 05:49:48;;;;;;;18.70;6.22;;;;;;;9.46;68.69;98128.75;5127663;27;20096;-76
2020/12/15 05:52:13;;;;;;;25.27;6.55;;;;;;;9.74;67.55;98121.84;5111690;27;20512;-77
2020/12/15 05:54:39;;;;;;;32.50;6.53;;;;;;;9.68;68.40;98119.44;5127313;27;20044;-76
2020/12/15 05:57:06;;;;;;;24.85;6.88;;;;;;;9.73;67.70;98117.56;5127113;27;20039;-77
2020/12/15 05:59:33;;;;;;;21.17;6.13;;;;;;;10.18;65.95;98117.09;5130227;27;20260;-77
2020/12/15 06:02:17;;;;;;;29.10;5.93;;;;;;;9.57;67.52;98114.53;5120607;27;20086;-77
2020/12/15 06:04:43;;;;;;;25.08;5.63;;;;;;;9.56;68.44;98111.94;5125193;27;20043;-78
2020/12/15 06:07:10;;;;;;;29.27;6.40;;;;;;;9.42;69.07;98120.16;5129235;27;20023;-79
2020/12/15 06:09:36;;;;;;;31.92;6.72;;;;;;;9.25;69.72;98119.78;5126408;27;20030;-78
2020/12/15 06:12:05;;;;;;;25.20;5.93;;;;;;;9.35;68.69;98110.78;5129604;27;20035;-77
2020/12/15 06:14:31;;;;;;;26.50;6.22;;;;;;;9.82;67.29;98113.81;5129919;27;20046;-78
2020/12/15 06:16:56;;;;;;;27.98;5.90;;;;;;;9.30;69.04;98107.50;5130572;27;20370;-77
2020/12/15 06:19:24;;;;;;;21.88;5.07;;;;;;;9.47;68.46;98117.44;5110502;27;20114;-77
2020/12/15 06:21:53;;;;;;;28.30;4.90;;;;;;;9.60;68.08;98108.34;5124341;27;20401;-77
2020/12/15 06:24:24;;;;;;;19.42;5.13;;;;;;;9.55;68.01;98112.84;5121203;27;20572;-76
2020/12/15 06:26:55;;;;;;;26.13;5.30;;;;;;;9.60;68.13;98113.56;5115114;27;20057;-77
2020/12/15 06:29:29;;;;;;;20.05;4.85;;;;;;;9.23;68.69;98102.47;5122331;27;20035;-77
2020/12/15 06:31:56;;;;;;;23.52;5.05;;;;;;;9.61;67.67;98116.13;5127688;27;20031;-77
2020/12/15 06:34:26;;;;;;;22.83;5.35;;;;;;;9.73;67.69;98125.38;5112540;27;20594;-79
2020/12/15 06:36:55;;;;;;;21.02;5.82;;;;;;;9.35;68.74;98126.44;5126397;27;20038;-78
2020/12/15 06:39:22;;;;;;;19.33;5.50;;;;;;;9.33;69.12;98130.00;5105563;27;20031;-77
2020/12/15 06:42:02;;;;;;;29.13;6.13;;;;;;;9.45;68.14;98125.28;5107651;27;20092;-77
2020/12/15 06:44:36;;;;;;;28.77;6.13;;;;;;;9.69;67.84;98135.94;5129815;27;20039;-77
2020/12/15 06:47:06;;;;;;;20.60;5.32;;;;;;;9.71;67.45;98145.41;5128476;27;20373;-77
2020/12/15 06:49:36;;;;;;;23.10;5.43;;;;;;;9.52;68.08;98132.06;5127714;27;20420;-76
2020/12/15 06:52:07;;;;;;;23.48;5.22;;;;;;;9.78;67.81;98146.97;5128271;27;20477;-78
2020/12/15 06:54:36;;;;;;;20.63;5.45;;;;;;;9.46;68.05;98133.97;5108311;27;20069;-77
2020/12/15 06:57:10;;;;;;;25.58;5.70;;;;;;;9.64;67.48;98144.72;5106546;27;20181;-77
2020/12/15 06:59:39;;;;;;;21.60;5.80;;;;;;;9.74;67.20;98153.13;5111943;27;20043;-77
2020/12/15 07:02:10;;;;;;;22.10;5.40;;;;;;;9.67;67.95;98142.94;5112279;27;20042;-77
2020/12/15 07:04:49;;;;;;;26.50;5.57;;;;;;;9.37;68.75;98149.84;5125598;27;20057;-77
2020/12/15 07:07:16;;;;;;;27.02;6.63;;;;;;;9.42;68.95;98158.41;5111600;27;20023;-77
2020/12/15 07:09:44;;;;;;;32.08;6.25;;;;;;;9.51;68.60;98155.53;5108969;27;20523;-76
2020/12/15 07:12:14;;;;;;;26.02;5.47;;;;;;;9.44;67.96;98156.63;5108438;28;20362;-77
2020/12/15 07:14:50;;;;;;;28.90;6.32;;;;;;;9.20;69.18;98171.16;5093648;27;20047;-76
2020/12/15 07:17:17;;;;;;;29.58;6.68;;;;;;;9.45;68.36;98177.41;5112689;27;20393;-77
2020/12/15 07:19:44;;;;;;;19.00;5.03;;;;;;;9.64;67.03;98182.97;5108754;27;20058;-78
2020/12/15 07:22:10;;;;;;;20.40;5.45;;;;;;;9.43;68.25;98183.56;5124890;27;20485;-76
2020/12/15 07:24:36;;;;;;;26.60;5.68;;;;;;;9.60;67.07;98189.19;5107886;28;20042;-77
2020/12/15 07:27:02;;;;;;;29.80;4.72;;;;;;;9.78;66.76;98185.22;5102268;27;20043;-78
2020/12/15 07:29:28;;;;;;;27.02;5.72;;;;;;;9.65;67.21;98192.50;5127770;27;20118;-78
2020/12/15 07:31:55;;;;;;;24.77;5.45;;;;;;;9.56;67.13;98192.78;5123396;27;20027;-77
2020/12/15 07:34:21;;;;;;;25.17;5.45;;;;;;;9.59;67.10;98197.91;5103755;28;20043;-77
2020/12/15 07:36:59;;;;;;;25.73;5.47;;;;;;;9.73;66.29;98200.16;5126154;27;20035;-77
2020/12/15 07:39:25;;;;;;;15.82;5.13;;;;;;;9.68;67.05;98208.09;5129297;27;20409;-79
2020/12/15 07:42:02;;;;;;;21.63;5.63;;;;;;;9.82;66.51;98207.72;5107132;27;20058;-77
2020/12/15 07:44:35;;;;;;;20.88;4.75;;;;;;;9.66;66.62;98212.47;5108697;27;20431;-77
2020/12/15 07:47:01;;;;;;;16.58;4.60;;;;;;;9.65;66.59;98215.97;5117377;27;20027;-77
2020/12/15 07:49:28;;;;;;;27.63;5.53;;;;;;;9.30;67.89;98229.97;5127598;27;20050;-77
2020/12/15 07:51:54;;;;;;;23.70;4.22;;;;;;;9.89;66.35;98230.94;5104556;27;20036;-77
2020/12/15 07:54:21;;;;;;;24.13;4.93;;;;;;;9.45;66.85;98244.31;5125543;27;20047;-77
2020/12/15 07:56:47;;;;;;;32.40;6.28;;;;;;;9.43;67.95;98240.94;5119911;27;20039;-77
2020/12/15 07:59:15;;;;;;;22.15;4.70;;;;;;;9.56;67.69;98237.09;5108825;27;20036;-79
2020/12/15 08:01:45;;;;;;;15.75;4.68;;;;;;;9.67;67.14;98250.69;5122258;27;20115;-77
2020/12/15 08:04:15;;;;;;;17.50;5.05;;;;;;;9.51;67.24;98245.03;5107301;27;20052;-77
2020/12/15 08:06:47;;;;;;;19.52;5.30;;;;;;;9.32;67.82;98248.16;5115303;27;20568;-77
2020/12/15 08:09:17;;;;;;;25.85;6.70;;;;;;;9.98;66.20;98255.91;5106824;28;20031;-77
2020/12/15 08:11:45;;;;;;;24.35;4.97;;;;;;;9.54;67.00;98250.16;5111889;27;20047;-77
2020/12/15 08:14:13;;;;;;;24.17;5.70;;;;;;;9.85;66.30;98257.16;5105731;27;20539;-77
2020/12/15 08:16:39;;;;;;;27.50;5.50;;;;;;;9.67;66.59;98263.75;5103163;28;20443;-77
2020/12/15 08:19:06;;;;;;;21.63;5.38;;;;;;;9.50;67.07;98258.97;5125297;27;20023;-78
2020/12/15 08:21:43;;;;;;;12.93;4.90;;;;;;;9.84;66.33;98265.88;5110460;28;20580;-77
2020/12/15 08:24:29;;;;;;;16.70;4.63;;;;;;;9.28;67.96;98265.63;5127125;27;20458;-77
2020/12/15 08:26:55;;;;;;;22.42;4.88;;;;;;;9.63;67.17;98276.00;5122943;27;20062;-76
2020/12/15 08:29:28;;;;;;;17.08;5.95;;;;;;;9.69;67.32;98279.34;5117703;27;20483;-77
2020/12/15 08:31:55;;;;;;;20.23;6.05;;;;;;;9.89;66.06;98280.50;5124034;27;20386;-77
2020/12/15 08:34:21;;;;;;;21.30;6.03;;;;;;;9.55;67.44;98283.16;5126418;27;20034;-76
2020/12/15 08:36:49;;;;;;;18.70;5.97;;;;;;;9.86;65.88;98283.22;5123394;27;20039;-76
2020/12/15 08:39:23;;;;;;;19.58;6.60;;;;;;;9.38;66.87;98282.75;5102585;28;20119;-77
2020/12/15 08:41:59;;;;;;;16.65;5.13;;;;;;;9.82;66.31;98278.97;5109222;27;20114;-78
2020/12/15 08:44:34;;;;;;;17.63;5.90;;;;;;;9.98;65.63;98292.44;5120247;27;20027;-77
2020/12/15 08:47:01;;;;;;;22.90;5.97;;;;;;;10.10;65.05;98292.13;5105118;28;20039;-77
2020/12/15 08:49:27;;;;;;;22.73;7.30;;;;;;;9.90;65.73;98299.63;5104211;28;20039;-77
2020/12/15 08:51:54;;;;;;;23.60;5.85;;;;;;;10.05;65.30;98307.03;5119216;27;20027;-74
2020/12/15 08:54:21;;;;;;;17.33;5.43;;;;;;;10.03;65.62;98314.91;5115383;27;20047;-76
2020/12/15 08:56:50;;;;;;;18.80;5.88;;;;;;;9.90;65.96;98310.06;5110652;28;20019;-78
2020/12/15 08:59:18;;;;;;;19.83;5.43;;;;;;;9.73;66.88;98309.66;5128179;27;20395;-79
2020/12/15 09:01:46;;;;;;;22.33;5.72;;;;;;;9.86;67.10;98321.47;5132192;27;20037;-77
2020/12/15 09:04:23;;;;;;;19.55;5.90;;;;;;;9.35;68.40;98318.47;5123890;27;20049;-80
2020/12/15 09:06:48;;;;;;;16.33;5.40;;;;;;;10.18;66.47;98329.31;5135341;27;20047;-78
2020/12/15 09:09:14;;;;;;;20.58;6.13;;;;;;;9.87;67.39;98331.03;5111831;27;20118;-78
2020/12/15 09:11:39;;;;;;;12.43;5.40;;;;;;;11.42;63.01;98331.66;5128312;27;20040;-78
2020/12/15 09:14:06;;;;;;;15.32;3.38;;;;;;;11.98;61.28;98327.19;5117210;27;20045;-80
2020/12/15 09:16:34;;;;;;;16.67;3.78;;;;;;;12.74;57.83;98324.41;5108662;27;20043;-77
2020/12/15 09:19:15;;;;;;;14.63;3.22;;;;;;;13.76;55.02;98327.31;5115380;27;20079;-79
2020/12/15 09:21:42;;;;;;;19.30;3.17;;;;;;;13.45;54.92;98322.47;5110772;27;20108;-76
2020/12/15 09:24:09;;;;;;;19.30;3.88;;;;;;;13.87;53.63;98319.81;5126010;27;20047;-79
2020/12/15 09:26:39;;;;;;;17.98;3.40;;;;;;;14.07;52.93;98318.97;5110142;27;20046;-77
2020/12/15 09:29:09;;;;;;;15.25;2.80;;;;;;;14.00;53.02;98327.19;5132059;27;20207;-76
2020/12/15 09:31:36;;;;;;;13.63;3.20;;;;;;;13.62;54.21;98323.56;5122519;27;20039;-79
2020/12/15 09:34:02;;;;;;;21.00;3.58;;;;;;;13.32;55.24;98320.41;5133392;27;20476;-76
2020/12/15 09:36:28;;;;;;;20.50;3.53;;;;;;;13.38;55.00;98317.53;5126768;27;20362;-76
2020/12/15 09:38:54;;;;;;;22.52;3.58;;;;;;;13.22;55.60;98324.31;5130548;27;20025;-77
2020/12/15 09:41:20;;;;;;;12.98;3.20;;;;;;;13.64;55.33;98325.19;5132685;27;20031;-78
2020/12/15 09:43:50;;;;;;;17.67;2.95;;;;;;;13.75;54.18;98328.22;5110269;27;20035;-78
2020/12/15 09:46:17;;;;;;;15.88;2.92;;;;;;;13.58;54.92;98324.56;5114877;27;20114;-78
2020/12/15 09:48:43;;;;;;;17.65;3.30;;;;;;;13.92;53.98;98330.97;5123994;27;20028;-78
2020/12/15 09:51:12;;;;;;;19.55;3.33;;;;;;;14.46;51.99;98337.41;5114573;27;20669;-78
2020/12/15 09:53:38;;;;;;;17.10;4.03;;;;;;;15.68;48.22;98335.16;5096220;28;20516;-79
2020/12/15 09:56:04;;;;;;;15.93;4.30;;;;;;;15.45;49.27;98344.13;5105186;27;20027;-78
2020/12/15 09:58:31;;;;;;;19.88;4.22;;;;;;;15.20;48.87;98331.28;5131049;27;20510;-78
2020/12/15 10:00:58;;;;;;;22.85;4.60;;;;;;;14.84;50.43;98347.03;5128493;27;20095;-78
2020/12/15 10:03:24;;;;;;;22.08;5.20;;;;;;;14.91;50.74;98350.25;5114270;27;20038;-79
2020/12/15 10:05:50;;;;;;;16.05;3.30;;;;;;;15.22;49.80;98350.50;5126191;27;20461;-76
2020/12/15 10:08:16;;;;;;;10.85;3.47;;;;;;;15.84;47.74;98348.41;5129685;27;20410;-79
2020/12/15 10:10:42;;;;;;;14.93;3.05;;;;;;;15.66;48.48;98353.66;5127187;27;20034;-78
2020/12/15 10:13:10;;;;;;;21.55;3.80;;;;;;;16.27;47.49;98352.34;5118864;27;20092;-76
2020/12/15 10:15:36;;;;;;;13.75;2.60;;;;;;;16.59;46.59;98343.66;5126784;27;20110;-78
2020/12/15 10:18:04;;;;;;;19.35;3.67;;;;;;;17.64;43.63;98356.31;5107429;27;20565;-76
2020/12/15 10:20:30;;;;;;;10.77;2.70;;;;;;;17.39;43.51;98354.19;5101190;27;20499;-77
2020/12/15 10:22:56;;;;;;;16.42;3.25;;;;;;;16.25;45.89;98365.63;5126761;27;20446;-77
2020/12/15 10:25:22;;;;;;;10.15;2.55;;;;;;;14.16;51.39;98355.31;5119085;27;20111;-77
2020/12/15 10:27:48;;;;;;;11.82;2.78;;;;;;;14.45;51.07;98359.34;5121779;27;20031;-77
2020/12/15 10:30:14;;;;;;;15.65;3.45;;;;;;;13.38;53.63;98359.50;5109408;27;20035;-77
2020/12/15 10:32:40;;;;;;;8.55;2.33;;;;;;;13.20;54.94;98358.44;5099179;27;20032;-77
2020/12/15 10:35:06;;;;;;;12.48;2.63;;;;;;;13.34;55.36;98364.00;5123547;27;20080;-79
2020/12/15 10:37:36;;;;;;;9.45;2.40;;;;;;;14.32;52.83;98361.63;5105540;27;20055;-77
2020/12/15 10:40:03;;;;;;;14.93;3.20;;;;;;;15.09;49.75;98374.84;5128404;27;20035;-77
2020/12/15 10:42:29;;;;;;;13.75;3.13;;;;;;;16.26;46.61;98383.09;5130594;27;20076;-76
2020/12/15 10:44:55;;;;;;;14.45;3.38;;;;;;;15.73;47.21;98382.34;5102526;27;20066;-76
2020/12/15 10:47:21;;;;;;;16.60;2.85;;;;;;;16.34;46.64;98386.22;5123289;27;20107;-77
2020/12/15 10:49:46;;;;;;;16.40;3.15;;;;;;;16.76;45.95;98384.94;5120322;27;20043;-76
2020/12/15 10:52:13;;;;;;;12.60;3.08;;;;;;;17.09;44.63;98385.75;5109486;27;20031;-76
2020/12/15 10:54:39;;;;;;;7.25;2.50;;;;;;;17.52;43.55;98380.72;5119730;27;20521;-78
2020/12/15 10:57:05;;;;;;;13.88;3.20;;;;;;;18.00;42.52;98380.59;5121440;27;20142;-77
2020/12/15 10:59:35;;;;;;;13.80;2.90;;;;;;;17.52;43.04;98375.44;5110099;27;20046;-78
2020/12/15 11:02:01;;;;;;;12.50;2.88;;;;;;;17.08;43.87;98377.91;5109407;27;20042;-74
2020/12/15 11:04:26;;;;;;;10.25;2.90;;;;;;;16.85;45.52;98385.28;5131081;27;20039;-75
2020/12/15 11:06:52;;;;;;;10.80;2.33;;;;;;;17.64;42.79;98380.94;5128234;27;20094;-78
2020/12/15 11:09:18;;;;;;;14.82;2.75;;;;;;;18.45;41.11;98386.75;5107318;27;20129;-77
2020/12/15 11:11:47;;;;;;;8.95;1.98;;;;;;;17.15;43.63;98384.56;5109148;27;20126;-75
2020/12/15 11:14:13;;;;;;;17.98;2.53;;;;;;;17.11;44.30;98388.31;5108210;27;20046;-78
2020/12/15 11:16:40;;;;;;;15.60;2.50;;;;;;;17.41;42.63;98383.97;5101235;27;20044;-77
2020/12/15 11:19:06;;;;;;;11.18;2.55;;;;;;;17.02;43.63;98391.47;5125331;27;20444;-78
2020/12/15 11:21:32;;;;;;;16.95;2.90;;;;;;;16.49;45.41;98400.41;5108095;28;20095;-78
2020/12/15 11:23:58;;;;;;;11.55;2.45;;;;;;;16.57;44.88;98403.47;5128575;27;20034;-79
2020/12/15 11:26:23;;;;;;;12.75;2.90;;;;;;;16.62;44.96;98385.66;5108262;27;20454;-78
2020/12/15 11:28:49;;;;;;;7.68;2.30;;;;;;;15.93;46.83;98387.44;5118246;27;20049;-79
2020/12/15 11:31:15;;;;;;;14.85;2.45;;;;;;;16.32;44.83;98395.97;5124232;27;20103;-79